KCDW

Essex County Airport

Caldwell, New Jersey, USA
METAR KCDW 121953Z 32004KT 10SM OVC041 03/M04 A3015 RMK AO2 SLP216 T00281044
Observed Flight Rules
Dec-12 @ 19:53 UTC (15 minutes ago) Visual Flight Rules
Wind Visibility Clouds
320° at 4 knots 10 miles
  • Overcast at 4,100' AGL
Temperatures Readings
Current 3°C / 37°F
Dewpoint -4°C / 25°F
Humidity 60%
Altimeter 30.15" Hg
Pressure 1021.6 hPa
Elevation 64
METAR KCDW 121953Z 32004KT 10SM OVC041 03/M04 A3015 RMK AO2 SLP216 T00281044
Observed Flight Rules
Dec-12 @ 19:53 UTC
(15 minutes ago)
VFR
Wind Visibility
320° at 4 knots 10 miles
Clouds
  • Overcast at 4,100' AGL
Temperature Dewpoint
3°C / 37°F -4°C / 25°F
Humidity Altimeter Pressure
60% 30.15" Hg 1021.6 hPa